createdAt,value
2022-07-30T00:00:24.671Z,79.37
2022-07-30T00:02:53.167Z,79.62
2022-07-30T00:05:20.894Z,79.75
2022-07-30T00:07:48.241Z,79.98
2022-07-30T00:10:15.277Z,80.18
2022-07-30T00:12:42.078Z,80.37
2022-07-30T00:15:09.719Z,80.40
2022-07-30T00:17:36.540Z,80.56
2022-07-30T00:20:04.081Z,80.65
2022-07-30T00:22:31.753Z,80.87
2022-07-30T00:24:59.123Z,81.07
2022-07-30T00:27:26.464Z,81.31
2022-07-30T00:29:53.302Z,81.61
2022-07-30T00:32:20.260Z,81.73
2022-07-30T00:34:47.105Z,82.18
2022-07-30T00:37:13.909Z,82.70
2022-07-30T00:39:40.741Z,82.58
2022-07-30T00:42:07.639Z,82.99
2022-07-30T00:44:34.482Z,83.02
2022-07-30T00:47:01.948Z,83.15
2022-07-30T00:49:30.531Z,82.85
2022-07-30T00:51:57.459Z,82.99
2022-07-30T00:54:24.405Z,82.91
2022-07-30T00:56:51.621Z,82.65
2022-07-30T00:59:18.508Z,82.87
2022-07-30T01:01:45.456Z,82.80
2022-07-30T01:04:12.341Z,82.96
2022-07-30T01:06:40.068Z,82.47
2022-07-30T01:09:08.048Z,82.15
2022-07-30T01:11:41.198Z,81.95
2022-07-30T01:14:09.593Z,82.19
2022-07-30T01:16:38.050Z,81.71
2022-07-30T01:19:30.145Z,81.90
2022-07-30T01:22:30.877Z,81.75
2022-07-30T01:25:03.983Z,82.07
2022-07-30T01:27:35.332Z,82.27
2022-07-30T01:30:05.682Z,82.79
2022-07-30T01:32:35.764Z,82.72
2022-07-30T01:35:04.772Z,82.48
2022-07-30T01:37:33.744Z,83.10
2022-07-30T01:40:01.093Z,82.72
2022-07-30T01:42:30.087Z,82.33
2022-07-30T01:44:59.124Z,82.41
2022-07-30T01:47:28.331Z,82.18
2022-07-30T01:49:57.629Z,82.18
2022-07-30T01:52:26.958Z,82.06
2022-07-30T01:54:56.271Z,81.83
2022-07-30T01:57:23.542Z,81.76
2022-07-30T01:59:55.033Z,81.49
2022-07-30T02:02:21.956Z,81.36
2022-07-30T02:04:49.488Z,81.00
2022-07-30T02:07:40.600Z,80.99
2022-07-30T02:10:14.541Z,80.60
2022-07-30T02:12:55.647Z,80.85
2022-07-30T02:15:30.561Z,80.86
2022-07-30T02:18:10.619Z,80.90
2022-07-30T02:20:38.388Z,80.91
2022-07-30T02:23:10.545Z,81.11
2022-07-30T02:25:40.833Z,80.97
2022-07-30T02:28:12.045Z,80.91
2022-07-30T02:30:47.337Z,80.72
2022-07-30T02:33:15.653Z,80.61
2022-07-30T02:35:42.731Z,80.47
2022-07-30T02:38:12.001Z,80.35
2022-07-30T02:40:42.116Z,80.29
2022-07-30T02:43:09.892Z,80.22
2022-07-30T02:45:38.102Z,80.11
2022-07-30T02:48:09.079Z,79.75
2022-07-30T02:50:39.632Z,79.50
2022-07-30T02:53:12.461Z,79.07
2022-07-30T02:55:42.655Z,78.61
2022-07-30T02:58:11.590Z,77.87
2022-07-30T03:00:39.113Z,76.77
2022-07-30T03:03:07.738Z,76.36
2022-07-30T03:05:38.553Z,76.00
2022-07-30T03:08:06.159Z,75.69
2022-07-30T03:10:34.076Z,75.20
2022-07-30T03:13:02.462Z,74.89
2022-07-30T03:15:30.810Z,74.88
2022-07-30T03:17:59.753Z,74.81
2022-07-30T03:20:30.951Z,74.88
2022-07-30T03:22:59.664Z,74.74
2022-07-30T03:25:30.959Z,74.30
2022-07-30T03:28:01.888Z,73.71
2022-07-30T03:30:29.334Z,72.72
2022-07-30T03:32:57.293Z,71.52
2022-07-30T03:35:25.111Z,70.50
2022-07-30T03:37:55.504Z,70.04
2022-07-30T03:40:23.492Z,69.73
2022-07-30T03:42:50.841Z,69.23
2022-07-30T03:45:21.756Z,68.39
2022-07-30T03:47:50.738Z,66.89
2022-07-30T03:50:17.645Z,65.50
2022-07-30T03:52:45.073Z,65.40
2022-07-30T03:55:17.178Z,65.36
2022-07-30T03:58:06.254Z,65.17
2022-07-30T04:00:35.249Z,64.99
2022-07-30T04:03:02.169Z,63.66
2022-07-30T04:05:45.002Z,63.18
2022-07-30T04:08:12.456Z,61.17
2022-07-30T04:10:40.813Z,59.85
2022-07-30T04:13:09.571Z,58.17
2022-07-30T04:16:17.719Z,55.67
2022-07-30T04:18:44.536Z,55.17
2022-07-30T04:21:16.998Z,54.45
2022-07-30T04:24:03.676Z,54.39
2022-07-30T04:26:35.607Z,54.37
2022-07-30T04:29:07.630Z,52.63
2022-07-30T04:31:40.476Z,52.98
2022-07-30T04:34:28.039Z,52.62
2022-07-30T04:36:54.903Z,52.38
2022-07-30T04:39:21.666Z,52.31
2022-07-30T04:41:50.028Z,49.96
2022-07-30T04:44:32.239Z,48.81
2022-07-30T04:47:22.053Z,46.89
2022-07-30T04:50:10.219Z,44.67
2022-07-30T04:52:37.611Z,42.76
2022-07-30T04:55:08.234Z,41.53
2022-07-30T04:57:37.606Z,40.76
2022-07-30T05:00:06.894Z,39.24
2022-07-30T05:02:40.130Z,37.93
2022-07-30T05:05:08.736Z,36.03
2022-07-30T05:07:37.986Z,36.64
2022-07-30T05:10:06.869Z,35.13
2022-07-30T05:12:34.668Z,35.22
2022-07-30T05:15:01.504Z,34.74
2022-07-30T05:17:28.293Z,34.85
2022-07-30T05:19:55.114Z,36.16
2022-07-30T05:22:21.877Z,36.17
2022-07-30T05:24:48.668Z,36.35
2022-07-30T05:27:15.934Z,36.55
2022-07-30T05:29:42.704Z,35.43
2022-07-30T05:32:13.834Z,35.02
2022-07-30T05:34:42.416Z,35.50
2022-07-30T05:37:09.851Z,35.68
2022-07-30T05:39:37.022Z,36.02
2022-07-30T05:42:50.499Z,35.89
2022-07-30T05:45:17.306Z,36.02
2022-07-30T05:47:44.384Z,36.37
2022-07-30T05:50:12.716Z,34.90
2022-07-30T05:52:39.768Z,33.83
2022-07-30T05:55:25.140Z,33.63
2022-07-30T05:58:12.159Z,34.07
2022-07-30T06:00:39.415Z,33.77
2022-07-30T06:03:06.821Z,33.33
2022-07-30T06:06:07.975Z,33.34
2022-07-30T06:08:35.177Z,32.64
2022-07-30T06:11:02.227Z,31.92
2022-07-30T06:13:29.777Z,31.17
2022-07-30T06:15:56.824Z,30.05
2022-07-30T06:18:23.741Z,29.99
2022-07-30T06:20:54.345Z,28.97
2022-07-30T06:23:44.654Z,28.70
2022-07-30T06:26:27.197Z,29.02
2022-07-30T06:28:54.029Z,28.31
2022-07-30T06:31:28.289Z,28.62
2022-07-30T06:33:55.349Z,27.69
2022-07-30T06:36:23.201Z,26.77
2022-07-30T06:39:10.195Z,26.32
2022-07-30T06:42:03.584Z,25.69
2022-07-30T06:44:50.433Z,25.46
2022-07-30T06:47:28.938Z,25.37
2022-07-30T06:49:57.388Z,26.20
2022-07-30T06:52:25.526Z,25.67
2022-07-30T06:54:53.402Z,25.44
2022-07-30T06:57:26.883Z,26.09
2022-07-30T06:59:56.124Z,25.44
2022-07-30T07:02:39.984Z,24.61
2022-07-30T07:05:12.664Z,24.50
2022-07-30T07:07:52.503Z,23.99
2022-07-30T07:10:27.614Z,24.45
2022-07-30T07:13:07.982Z,24.83
2022-07-30T07:15:36.935Z,25.36
2022-07-30T07:18:07.061Z,24.98
2022-07-30T07:20:38.936Z,25.05
2022-07-30T07:23:09.150Z,24.94
2022-07-30T07:25:39.896Z,24.38
2022-07-30T07:28:10.912Z,24.46
2022-07-30T07:30:41.554Z,23.92
2022-07-30T07:33:08.697Z,22.84
2022-07-30T07:35:48.457Z,22.78
2022-07-30T07:38:20.158Z,22.84
2022-07-30T07:40:48.215Z,22.69
2022-07-30T07:43:15.727Z,22.14
2022-07-30T07:45:43.306Z,22.87
2022-07-30T07:48:10.219Z,22.70
2022-07-30T07:51:00.355Z,22.21
2022-07-30T07:53:30.225Z,22.13
2022-07-30T07:55:57.396Z,20.64
2022-07-30T07:58:26.595Z,20.74
2022-07-30T08:00:57.506Z,22.22
2022-07-30T08:03:42.371Z,21.49
2022-07-30T08:06:29.126Z,20.93
2022-07-30T08:09:27.951Z,21.27
2022-07-30T08:12:40.882Z,21.02
2022-07-30T08:15:34.171Z,21.09
2022-07-30T08:18:19.234Z,21.57
2022-07-30T08:21:09.202Z,20.43
2022-07-30T08:23:39.685Z,20.16
2022-07-30T08:26:09.031Z,19.07
2022-07-30T08:28:36.883Z,20.33
2022-07-30T08:31:06.718Z,19.40
2022-07-30T08:33:34.198Z,18.68
2022-07-30T08:36:04.014Z,18.18
2022-07-30T08:38:32.695Z,18.86
2022-07-30T08:40:59.612Z,19.09
2022-07-30T08:43:27.196Z,18.61
2022-07-30T08:45:56.974Z,17.72
2022-07-30T08:48:47.449Z,17.86
2022-07-30T08:51:18.169Z,17.63
2022-07-30T08:54:04.481Z,18.12
2022-07-30T08:56:33.129Z,18.21
2022-07-30T08:59:00.703Z,19.24
2022-07-30T09:01:27.660Z,20.39
2022-07-30T09:03:56.700Z,20.24
2022-07-30T09:06:25.833Z,20.64
2022-07-30T09:08:52.710Z,20.73
2022-07-30T09:11:19.525Z,21.06
2022-07-30T09:13:47.108Z,20.33
2022-07-30T09:16:24.337Z,20.98
2022-07-30T09:18:54.507Z,21.87
2022-07-30T09:21:26.751Z,21.85
2022-07-30T09:24:13.696Z,21.83
2022-07-30T09:27:07.637Z,21.46
2022-07-30T09:30:02.247Z,21.53
2022-07-30T09:32:52.802Z,21.95
2022-07-30T09:35:45.525Z,20.57
2022-07-30T09:38:13.158Z,20.04
2022-07-30T09:40:57.569Z,19.55
2022-07-30T09:43:42.380Z,19.86
2022-07-30T09:46:12.762Z,18.84
2022-07-30T09:48:39.722Z,19.07
2022-07-30T09:51:06.847Z,18.60
2022-07-30T09:53:57.020Z,18.00
2022-07-30T09:56:30.024Z,17.97
2022-07-30T09:58:58.736Z,18.51
2022-07-30T10:01:25.550Z,18.87
2022-07-30T10:04:32.870Z,18.38
2022-07-30T10:07:25.487Z,18.83
2022-07-30T10:09:59.753Z,19.58
2022-07-30T10:12:27.929Z,18.48
2022-07-30T10:15:01.936Z,17.91
2022-07-30T10:17:34.413Z,17.18
2022-07-30T10:20:19.953Z,17.62
2022-07-30T10:23:09.054Z,17.57
2022-07-30T10:25:54.840Z,17.88
2022-07-30T10:28:41.564Z,16.42
2022-07-30T10:31:46.702Z,15.64
2022-07-30T10:33:56.501Z,17.12
2022-07-30T10:36:24.949Z,16.74
2022-07-30T10:38:53.174Z,17.31
2022-07-30T10:41:48.229Z,17.52
2022-07-30T10:44:30.194Z,16.08
2022-07-30T10:47:07.218Z,16.09
2022-07-30T10:49:40.547Z,16.19
2022-07-30T10:52:09.052Z,16.27
2022-07-30T10:54:40.401Z,15.72
2022-07-30T10:57:32.221Z,15.69
2022-07-30T10:59:59.846Z,14.91
2022-07-30T11:02:35.662Z,14.93
2022-07-30T11:05:18.394Z,16.60
2022-07-30T11:07:47.389Z,16.09
2022-07-30T11:10:40.299Z,16.40
2022-07-30T11:13:08.615Z,17.60
2022-07-30T11:15:55.056Z,18.66
2022-07-30T11:18:24.985Z,18.24
2022-07-30T11:21:21.454Z,18.63
2022-07-30T11:23:53.443Z,19.28
2022-07-30T11:26:48.977Z,19.46
2022-07-30T11:29:34.186Z,19.23
2022-07-30T11:32:30.276Z,18.39
2022-07-30T11:35:18.068Z,18.26
2022-07-30T11:38:10.119Z,18.09
2022-07-30T11:40:42.414Z,17.91
2022-07-30T11:43:39.391Z,17.04
2022-07-30T11:46:10.505Z,16.66
2022-07-30T11:48:40.715Z,15.08
2022-07-30T11:51:08.770Z,16.03
2022-07-30T11:53:36.035Z,16.12
2022-07-30T11:56:06.650Z,16.28
2022-07-30T11:58:37.273Z,15.66
2022-07-30T12:01:09.321Z,15.25
2022-07-30T12:03:41.035Z,14.23
2022-07-30T12:06:13.736Z,13.46
2022-07-30T12:08:42.446Z,13.23
2022-07-30T12:11:09.796Z,12.83
2022-07-30T12:13:44.961Z,12.64
2022-07-30T12:16:18.552Z,12.56
2022-07-30T12:18:46.992Z,11.43
2022-07-30T12:21:17.761Z,11.02
2022-07-30T12:24:07.659Z,10.63
2022-07-30T12:26:35.375Z,11.42
2022-07-30T12:29:06.687Z,11.33
2022-07-30T12:31:34.120Z,11.24
2022-07-30T12:34:05.248Z,11.62
2022-07-30T12:36:34.056Z,11.38
2022-07-30T12:39:02.940Z,12.33
2022-07-30T12:41:42.953Z,12.69
2022-07-30T12:44:10.159Z,11.80
2022-07-30T12:46:41.337Z,11.47
2022-07-30T12:49:22.480Z,10.91
2022-07-30T12:51:59.761Z,10.74
2022-07-30T12:54:28.439Z,10.52
2022-07-30T12:57:01.861Z,11.48
2022-07-30T12:59:30.521Z,11.37
2022-07-30T13:02:00.212Z,12.08
2022-07-30T13:04:28.001Z,11.14
2022-07-30T13:07:11.726Z,11.93
2022-07-30T13:09:40.003Z,11.98
2022-07-30T13:16:41.892Z,13.49
2022-07-30T13:19:13.551Z,13.89
2022-07-30T13:21:49.815Z,15.24
2022-07-30T13:24:18.454Z,16.27
2022-07-30T13:26:45.988Z,16.55
2022-07-30T13:29:16.725Z,16.90
2022-07-30T13:31:43.676Z,16.92
2022-07-30T13:34:12.022Z,17.08
2022-07-30T13:36:38.960Z,17.24
2022-07-30T13:39:05.722Z,16.78
2022-07-30T13:41:33.281Z,17.97
2022-07-30T13:44:00.123Z,17.96
2022-07-30T13:46:26.823Z,17.73
2022-07-30T13:48:53.724Z,16.92
2022-07-30T13:51:20.784Z,16.71
2022-07-30T13:53:47.630Z,16.19
2022-07-30T13:56:14.390Z,16.63
2022-07-30T13:58:42.455Z,16.64
2022-07-30T14:01:10.151Z,16.90
2022-07-30T14:03:49.773Z,17.48
2022-07-30T14:06:17.273Z,17.08
2022-07-30T14:08:44.032Z,17.65
2022-07-30T14:11:10.862Z,17.86
2022-07-30T14:13:38.096Z,18.45
2022-07-30T14:16:10.684Z,17.96
2022-07-30T14:18:40.812Z,17.70
2022-07-30T14:21:07.687Z,18.06
2022-07-30T14:23:34.473Z,18.48
2022-07-30T14:26:02.376Z,18.11
2022-07-30T14:28:29.239Z,18.45
2022-07-30T14:30:56.158Z,18.90
2022-07-30T14:33:22.871Z,19.32
2022-07-30T14:35:49.667Z,19.61
2022-07-30T14:38:17.151Z,20.40
2022-07-30T14:40:43.978Z,20.84
2022-07-30T14:43:10.677Z,20.95
2022-07-30T14:45:37.514Z,21.49
2022-07-30T14:48:04.572Z,21.87
2022-07-30T14:50:31.348Z,23.02
2022-07-30T14:52:58.120Z,22.88
2022-07-30T14:55:25.227Z,24.30
2022-07-30T14:57:51.992Z,24.70
2022-07-30T15:00:19.419Z,24.39
2022-07-30T15:02:48.144Z,24.99
2022-07-30T15:05:14.957Z,25.03
2022-07-30T15:07:41.799Z,24.55
2022-07-30T15:10:09.038Z,24.83
2022-07-30T15:12:37.132Z,25.38
2022-07-30T15:15:05.602Z,25.86
2022-07-30T15:17:35.295Z,26.48
2022-07-30T15:20:02.124Z,26.28
2022-07-30T15:22:28.994Z,26.48
2022-07-30T15:24:55.746Z,26.75
2022-07-30T15:27:31.814Z,26.79
2022-07-30T15:30:01.034Z,26.91
2022-07-30T15:32:27.717Z,27.61
2022-07-30T15:34:56.248Z,27.83
2022-07-30T15:37:22.965Z,28.11
2022-07-30T15:39:49.767Z,28.38
2022-07-30T15:42:16.502Z,29.01
2022-07-30T15:44:48.599Z,29.22
2022-07-30T15:47:16.051Z,29.53
2022-07-30T15:49:42.728Z,29.88
2022-07-30T15:52:09.531Z,29.98
2022-07-30T15:54:36.229Z,29.71
2022-07-30T15:57:03.088Z,30.08
2022-07-30T15:59:30.332Z,30.63
2022-07-30T16:01:57.878Z,30.96
2022-07-30T16:04:31.159Z,31.34
2022-07-30T16:07:04.429Z,32.14
2022-07-30T16:09:31.275Z,32.12
2022-07-30T16:11:58.745Z,32.78
2022-07-30T16:14:26.169Z,32.23
2022-07-30T16:16:53.110Z,32.33
2022-07-30T16:19:20.347Z,32.48
2022-07-30T16:21:47.134Z,32.75
2022-07-30T16:24:13.921Z,33.57
2022-07-30T16:26:40.619Z,33.54
2022-07-30T16:29:11.894Z,33.41
2022-07-30T16:31:40.461Z,33.66
2022-07-30T16:34:07.237Z,33.96
2022-07-30T16:36:34.187Z,34.45
2022-07-30T16:39:01.369Z,35.24
2022-07-30T16:41:28.303Z,35.87
2022-07-30T16:43:55.008Z,36.45
2022-07-30T16:46:21.865Z,37.20
2022-07-30T16:48:50.587Z,37.44
2022-07-30T16:51:17.745Z,38.00
2022-07-30T16:53:44.608Z,38.42
2022-07-30T16:56:11.313Z,38.68
2022-07-30T16:58:38.053Z,39.32
2022-07-30T17:01:04.899Z,39.96
2022-07-30T17:03:31.692Z,39.80
2022-07-30T17:05:58.393Z,40.48
2022-07-30T17:08:25.510Z,40.65
2022-07-30T17:10:53.160Z,40.66
2022-07-30T17:13:20.529Z,41.20
2022-07-30T17:15:47.917Z,41.66
2022-07-30T17:18:15.682Z,41.87
2022-07-30T17:20:42.972Z,42.01
2022-07-30T17:23:09.720Z,42.64
2022-07-30T17:25:36.460Z,43.08
2022-07-30T17:28:03.479Z,43.69
2022-07-30T17:30:30.525Z,44.34
2022-07-30T17:32:57.895Z,45.17
2022-07-30T17:35:24.895Z,45.48
2022-07-30T17:37:51.839Z,46.03
2022-07-30T17:40:27.149Z,46.29
2022-07-30T17:43:03.769Z,46.71
2022-07-30T17:45:35.012Z,47.39
2022-07-30T17:48:02.732Z,47.84
2022-07-30T17:50:33.672Z,48.16
2022-07-30T17:53:03.562Z,49.08
2022-07-30T17:55:31.773Z,49.68
2022-07-30T17:57:58.559Z,49.83
2022-07-30T18:00:25.722Z,50.18
2022-07-30T18:02:52.581Z,50.39
2022-07-30T18:05:19.464Z,50.88
2022-07-30T18:07:46.286Z,51.17
2022-07-30T18:10:13.167Z,52.16
2022-07-30T18:12:48.887Z,52.12
2022-07-30T18:15:17.630Z,52.81
2022-07-30T18:17:44.733Z,53.05
2022-07-30T18:20:11.938Z,53.49
2022-07-30T18:22:38.727Z,53.75
2022-07-30T18:25:07.985Z,54.23
2022-07-30T18:27:44.907Z,54.35
2022-07-30T18:30:11.853Z,54.75
2022-07-30T18:32:38.602Z,55.20
2022-07-30T18:35:05.830Z,55.87
2022-07-30T18:37:41.262Z,55.79
2022-07-30T18:40:09.688Z,56.11
2022-07-30T18:42:36.414Z,56.71
2022-07-30T18:45:03.706Z,56.61
2022-07-30T18:47:30.425Z,57.09
2022-07-30T18:49:57.276Z,57.08
2022-07-30T18:52:24.108Z,57.19
2022-07-30T18:54:50.866Z,57.54
2022-07-30T18:57:17.681Z,57.91
2022-07-30T18:59:44.461Z,57.99
2022-07-30T19:02:11.243Z,58.09
2022-07-30T19:04:38.028Z,58.36
2022-07-30T19:07:04.825Z,58.85
2022-07-30T19:09:31.640Z,58.85
2022-07-30T19:11:58.429Z,59.01
2022-07-30T19:14:25.224Z,59.42
2022-07-30T19:16:52.582Z,59.75
2022-07-30T19:19:20.861Z,60.10
2022-07-30T19:21:47.656Z,60.24
2022-07-30T19:24:14.383Z,60.35
2022-07-30T19:26:43.090Z,60.59
2022-07-30T19:29:10.023Z,60.87
2022-07-30T19:31:36.836Z,60.78
2022-07-30T19:34:03.773Z,61.21
2022-07-30T19:36:30.653Z,61.39
2022-07-30T19:39:06.879Z,61.71
2022-07-30T19:41:40.555Z,61.50
2022-07-30T19:44:11.323Z,61.91
2022-07-30T19:46:38.753Z,61.59
2022-07-30T19:49:08.415Z,61.55
2022-07-30T19:52:09.868Z,61.67
2022-07-30T19:54:22.061Z,61.74
2022-07-30T19:56:49.198Z,61.81
2022-07-30T19:59:15.964Z,61.55
2022-07-30T20:01:44.221Z,61.82
2022-07-30T20:04:14.707Z,61.87
2022-07-30T20:06:46.063Z,62.05
2022-07-30T20:09:15.053Z,62.51
2022-07-30T20:11:43.618Z,62.67
2022-07-30T20:14:10.503Z,62.72
2022-07-30T20:16:37.854Z,62.97
2022-07-30T20:19:04.905Z,62.98
2022-07-30T20:21:54.276Z,63.08
2022-07-30T20:24:20.365Z,63.28
2022-07-30T20:26:47.868Z,63.71
2022-07-30T20:29:18.987Z,63.72
2022-07-30T20:31:49.641Z,64.08
2022-07-30T20:34:20.691Z,64.20
2022-07-30T20:36:51.240Z,64.34
2022-07-30T20:39:19.938Z,64.55
2022-07-30T20:41:46.886Z,64.33
2022-07-30T20:44:23.612Z,64.88
2022-07-30T20:46:52.926Z,65.13
2022-07-30T20:49:24.094Z,65.52
2022-07-30T20:52:01.277Z,65.54
2022-07-30T20:54:30.311Z,65.65
2022-07-30T20:56:57.439Z,65.74
2022-07-30T20:59:24.906Z,66.16
2022-07-30T21:01:51.718Z,66.32
2022-07-30T21:04:25.378Z,66.67
2022-07-30T21:06:52.699Z,66.65
2022-07-30T21:09:20.014Z,66.84
2022-07-30T21:11:50.383Z,67.18
2022-07-30T21:14:20.034Z,67.10
2022-07-30T21:16:46.944Z,67.84
2022-07-30T21:19:18.499Z,67.87
2022-07-30T21:21:48.137Z,68.29
2022-07-30T21:24:33.960Z,68.37
2022-07-30T21:27:00.884Z,69.63
2022-07-30T21:29:28.845Z,69.82
2022-07-30T21:32:08.889Z,70.01
2022-07-30T21:34:41.948Z,70.40
2022-07-30T21:37:09.346Z,70.42
2022-07-30T21:39:39.958Z,70.23
2022-07-30T21:42:08.460Z,70.69
2022-07-30T21:44:36.254Z,71.35
2022-07-30T21:47:05.718Z,71.79
2022-07-30T21:49:37.737Z,71.81
2022-07-30T21:52:05.178Z,72.45
2022-07-30T21:54:48.166Z,72.41
2022-07-30T21:57:26.177Z,72.28
2022-07-30T21:59:55.169Z,72.51
2022-07-30T22:02:23.249Z,72.29
2022-07-30T22:04:51.474Z,72.12
2022-07-30T22:07:18.319Z,72.53
2022-07-30T22:09:45.198Z,72.64
2022-07-30T22:12:13.032Z,72.49
2022-07-30T22:14:45.391Z,72.35
2022-07-30T22:17:23.475Z,72.61
2022-07-30T22:20:03.374Z,72.26
2022-07-30T22:22:35.529Z,72.21
2022-07-30T22:25:02.704Z,72.20
2022-07-30T22:27:39.722Z,72.11
2022-07-30T22:30:21.345Z,71.92
2022-07-30T22:32:49.584Z,71.93
2022-07-30T22:35:16.772Z,72.02
2022-07-30T22:37:47.633Z,71.97
2022-07-30T22:40:15.213Z,72.06
2022-07-30T22:42:49.735Z,71.87
2022-07-30T22:45:35.973Z,71.91
2022-07-30T22:48:10.089Z,71.99
2022-07-30T22:50:40.160Z,72.21
2022-07-30T22:53:09.771Z,72.32
2022-07-30T22:55:43.362Z,71.97
2022-07-30T22:58:10.644Z,72.03
2022-07-30T23:00:37.374Z,72.68
2022-07-30T23:03:05.668Z,72.59
2022-07-30T23:05:35.582Z,72.85
2022-07-30T23:08:03.637Z,73.00
2022-07-30T23:10:30.446Z,73.75
2022-07-30T23:12:58.905Z,73.20
2022-07-30T23:15:25.679Z,73.25
2022-07-30T23:17:53.261Z,73.87
2022-07-30T23:20:20.971Z,74.09
2022-07-30T23:22:48.302Z,74.13
2022-07-30T23:25:15.520Z,74.21
2022-07-30T23:27:42.972Z,74.58
2022-07-30T23:30:11.381Z,74.69
2022-07-30T23:32:40.007Z,75.29
2022-07-30T23:35:08.824Z,75.30
2022-07-30T23:37:37.938Z,75.28
2022-07-30T23:40:15.645Z,75.61
2022-07-30T23:42:42.334Z,76.07
2022-07-30T23:45:09.481Z,76.36
2022-07-30T23:48:02.159Z,76.99
2022-07-30T23:50:25.223Z,77.49
2022-07-30T23:52:52.039Z,77.06
2022-07-30T23:55:18.938Z,77.75
2022-07-30T23:57:45.718Z,78.11
